Time;durP1;ratioP1;P1;durP2;ratioP2;P2;SDS_P1;SDS_P2;PMS_P1;PMS_P2;Temp;Humidity;BMP_temperature;BMP_pressure;BME280_temperature;BME280_humidity;BME280_pressure;Samples;Min_cycle;Max_cycle;Signal;HPM_P1;HPM_P2
2022/11/27 00:01:07;;;;;;;21.67;8.80;;;;;;;3.66;100.00;102370.16;6124296;23;20403;-86
2022/11/27 00:03:32;;;;;;;17.88;8.35;;;;;;;3.66;100.00;102367.53;6122291;23;20010;-85
2022/11/27 00:05:57;;;;;;;19.42;8.43;;;;;;;3.63;100.00;102358.75;6122856;23;20008;-86
2022/11/27 00:08:24;;;;;;;16.60;8.65;;;;;;;3.57;100.00;102351.72;6123867;23;20141;-86
2022/11/27 00:10:49;;;;;;;18.25;8.18;;;;;;;3.58;100.00;102357.88;6123342;23;20010;-85
2022/11/27 00:13:15;;;;;;;24.90;8.88;;;;;;;3.52;100.00;102352.59;6122791;23;20010;-85
2022/11/27 00:15:40;;;;;;;20.13;9.88;;;;;;;3.49;100.00;102349.06;6123420;23;20428;-84
2022/11/27 00:18:05;;;;;;;21.40;9.13;;;;;;;3.44;100.00;102348.19;6125323;23;20002;-85
2022/11/27 00:20:31;;;;;;;21.83;9.10;;;;;;;3.46;100.00;102356.94;6125324;23;20344;-86
2022/11/27 00:22:56;;;;;;;24.83;9.90;;;;;;;3.39;100.00;102351.69;6121044;23;20009;-86
2022/11/27 00:25:21;;;;;;;20.10;9.32;;;;;;;3.37;100.00;102354.31;6091647;23;20116;-86
2022/11/27 00:27:47;;;;;;;21.90;8.93;;;;;;;3.25;100.00;102336.72;6092867;23;20456;-85
2022/11/27 00:30:12;;;;;;;22.98;9.63;;;;;;;3.24;100.00;102342.84;6091309;23;20097;-86
2022/11/27 00:32:38;;;;;;;18.30;8.88;;;;;;;3.15;100.00;102320.91;6091901;23;20167;-86
2022/11/27 00:35:03;;;;;;;23.23;9.38;;;;;;;3.07;100.00;102326.13;6093111;23;20010;-85
2022/11/27 00:37:29;;;;;;;19.98;9.75;;;;;;;3.09;100.00;102331.38;6092439;23;19999;-86
2022/11/27 00:39:54;;;;;;;28.20;10.27;;;;;;;3.05;100.00;102324.34;6091866;23;20021;-86
2022/11/27 00:42:19;;;;;;;19.70;9.95;;;;;;;3.08;100.00;102324.38;6091991;23;20051;-87
2022/11/27 00:44:44;;;;;;;22.00;9.70;;;;;;;3.05;100.00;102313.84;6091275;23;20010;-85
2022/11/27 00:47:10;;;;;;;18.73;9.98;;;;;;;2.97;100.00;102313.84;6091915;23;20070;-86
2022/11/27 00:49:35;;;;;;;22.77;10.88;;;;;;;2.96;100.00;102315.56;6090967;23;20010;-85
2022/11/27 00:52:00;;;;;;;20.67;10.45;;;;;;;2.93;100.00;102322.59;6090437;23;20006;-85
2022/11/27 00:54:25;;;;;;;26.52;10.98;;;;;;;2.89;100.00;102332.22;6092296;23;20073;-87
2022/11/27 00:56:51;;;;;;;20.63;11.43;;;;;;;2.87;100.00;102322.53;6091178;23;20006;-86
2022/11/27 00:59:16;;;;;;;22.65;11.18;;;;;;;2.88;100.00;102325.16;6090918;23;20533;-86
2022/11/27 01:01:42;;;;;;;22.38;11.35;;;;;;;2.89;100.00;102318.19;6090976;23;20479;-86
2022/11/27 01:04:12;;;;;;;21.70;11.40;;;;;;;2.87;100.00;102318.16;6092761;23;20018;-86
2022/11/27 01:06:38;;;;;;;23.83;12.00;;;;;;;2.85;100.00;102306.75;6093369;23;20444;-85
2022/11/27 01:09:04;;;;;;;26.83;13.25;;;;;;;2.85;100.00;102305.88;6092953;23;20010;-85
2022/11/27 01:11:31;;;;;;;24.92;12.35;;;;;;;2.85;100.00;102292.75;6091859;23;20010;-86
2022/11/27 01:13:59;;;;;;;29.52;12.40;;;;;;;2.84;100.00;102294.47;6091760;23;20061;-86
2022/11/27 01:16:27;;;;;;;25.75;12.20;;;;;;;2.86;100.00;102295.38;6093833;23;20002;-86
2022/11/27 01:18:56;;;;;;;20.50;12.05;;;;;;;2.84;100.00;102296.22;6093687;23;20086;-86
2022/11/27 01:21:22;;;;;;;22.15;11.95;;;;;;;2.83;100.00;102281.31;6091598;23;20018;-86
2022/11/27 01:23:48;;;;;;;22.05;11.95;;;;;;;2.79;100.00;102274.28;6102924;23;20029;-86
2022/11/27 01:26:14;;;;;;;24.50;11.95;;;;;;;2.78;100.00;102276.03;6124546;23;20432;-86
2022/11/27 01:28:40;;;;;;;25.48;12.10;;;;;;;2.84;100.00;102291.84;6123700;23;20014;-86
2022/11/27 01:31:16;;;;;;;24.65;12.43;;;;;;;2.84;100.00;102307.59;6125651;23;20009;-86
2022/11/27 01:33:42;;;;;;;25.15;12.25;;;;;;;2.85;100.00;102298.88;6122331;23;20068;-86
2022/11/27 01:36:10;;;;;;;23.77;11.07;;;;;;;2.85;100.00;102290.13;6123166;23;20005;-85
2022/11/27 01:38:35;;;;;;;25.42;12.50;;;;;;;2.87;100.00;102290.97;6123349;23;20013;-87
2022/11/27 01:41:07;;;;;;;24.15;11.30;;;;;;;2.88;100.00;102272.56;6123430;23;20013;-86
2022/11/27 01:43:51;;;;;;;24.40;13.00;;;;;;;2.89;100.00;102270.84;6121660;23;20012;-86
2022/11/27 01:46:38;;;;;;;28.00;12.70;;;;;;;2.92;100.00;102258.56;6122753;23;20017;-86
2022/11/27 01:49:09;;;;;;;22.13;10.98;;;;;;;2.95;100.00;102255.06;6128004;23;20013;-86
2022/11/27 01:51:46;;;;;;;26.98;11.38;;;;;;;2.97;100.00;102255.97;6128990;23;20010;-86
2022/11/27 01:54:12;;;;;;;18.70;10.52;;;;;;;2.99;100.00;102256.84;6131080;23;20076;-86
2022/11/27 01:56:40;;;;;;;18.60;11.48;;;;;;;3.04;100.00;102260.34;6129199;23;19990;-86
2022/11/27 01:59:06;;;;;;;23.50;10.63;;;;;;;3.06;100.00;102257.75;6099173;23;20012;-86
2022/11/27 02:01:32;;;;;;;21.60;10.52;;;;;;;3.13;100.00;102252.47;6122085;23;20013;-85
2022/11/27 02:03:59;;;;;;;23.67;10.52;;;;;;;3.14;100.00;102229.72;6124763;23;20011;-85
2022/11/27 02:06:25;;;;;;;19.08;10.15;;;;;;;3.16;100.00;102220.03;6125311;23;20002;-85
2022/11/27 02:08:51;;;;;;;20.25;10.38;;;;;;;3.13;100.00;102206.88;6124507;23;20387;-85
2022/11/27 02:11:34;;;;;;;21.67;10.15;;;;;;;3.12;100.00;102205.13;6122639;23;20017;-85
2022/11/27 02:14:12;;;;;;;21.45;10.75;;;;;;;3.06;100.00;102198.13;6123623;23;20065;-85
2022/11/27 02:17:00;;;;;;;18.10;9.60;;;;;;;3.00;100.00;102196.34;6121484;23;20412;-84
2022/11/27 02:19:42;;;;;;;22.20;9.93;;;;;;;2.92;100.00;102191.94;6065018;23;20010;-85
2022/11/27 02:22:14;;;;;;;19.73;9.93;;;;;;;2.91;100.00;102198.94;6121249;23;20013;-85
2022/11/27 02:24:48;;;;;;;22.45;10.38;;;;;;;2.89;100.00;102190.19;6121425;23;20013;-85
2022/11/27 02:27:50;;;;;;;22.75;10.55;;;;;;;2.91;100.00;102188.44;6122618;23;20040;-85
2022/11/27 02:30:15;;;;;;;20.80;10.32;;;;;;;2.89;100.00;102170.91;6121282;23;20006;-86
2022/11/27 02:32:58;;;;;;;21.48;10.43;;;;;;;2.93;100.00;102178.81;6122687;23;20006;-85
2022/11/27 02:35:46;;;;;;;18.42;9.70;;;;;;;2.92;100.00;102179.66;6095788;23;20073;-85
2022/11/27 02:38:22;;;;;;;19.60;10.15;;;;;;;2.92;100.00;102174.41;6121883;23;20002;-84
2022/11/27 02:40:57;;;;;;;17.83;9.43;;;;;;;2.96;100.00;102186.69;6121176;23;20006;-85
2022/11/27 02:43:41;;;;;;;17.15;9.30;;;;;;;2.94;100.00;102170.03;6120049;23;20006;-86
2022/11/27 02:46:09;;;;;;;17.50;9.30;;;;;;;3.00;100.00;102170.03;6095253;23;20098;-85
2022/11/27 02:48:43;;;;;;;15.40;8.60;;;;;;;3.06;100.00;102152.53;6120620;23;19998;-85
2022/11/27 02:51:11;;;;;;;17.98;8.73;;;;;;;3.10;100.00;102157.78;6094475;23;20407;-85
2022/11/27 02:53:42;;;;;;;16.48;8.35;;;;;;;3.09;100.00;102155.13;6120581;23;20429;-86
2022/11/27 02:56:13;;;;;;;17.08;8.90;;;;;;;3.11;100.00;102158.66;6121298;23;20013;-85
2022/11/27 02:58:40;;;;;;;18.45;8.82;;;;;;;3.13;100.00;102163.03;6094401;23;20010;-84
2022/11/27 03:01:08;;;;;;;16.02;8.50;;;;;;;3.14;100.00;102163.94;6121134;23;20097;-85
2022/11/27 03:03:39;;;;;;;18.65;8.60;;;;;;;3.15;100.00;102163.94;6120889;23;20062;-87
2022/11/27 03:06:11;;;;;;;16.15;8.30;;;;;;;3.12;100.00;102171.81;6121852;23;20060;-85
2022/11/27 03:08:42;;;;;;;14.90;7.60;;;;;;;3.15;100.00;102176.19;6121214;23;20062;-85
2022/11/27 03:11:11;;;;;;;15.15;8.10;;;;;;;3.15;100.00;102173.56;6122720;23;20005;-86
2022/11/27 03:13:41;;;;;;;19.05;8.93;;;;;;;3.15;100.00;102176.19;6121866;23;20010;-85
2022/11/27 03:16:09;;;;;;;15.32;8.23;;;;;;;3.19;100.00;102189.38;6120732;23;20006;-87
2022/11/27 03:18:42;;;;;;;13.80;7.45;;;;;;;3.20;100.00;102182.34;6120936;23;20005;-85
2022/11/27 03:21:22;;;;;;;;;;;;;;;3.26;100.00;102179.72;6121548;23;20012;-85
2022/11/27 03:23:48;;;;;;;15.65;7.95;;;;;;;3.29;100.00;102174.44;6121951;23;19909;-85
2022/11/27 03:26:13;;;;;;;17.45;8.50;;;;;;;3.29;100.00;102163.06;6123105;23;20155;-86
2022/11/27 03:28:41;;;;;;;16.92;8.90;;;;;;;3.33;100.00;102168.31;6122678;23;20089;-86
2022/11/27 03:31:07;;;;;;;21.02;8.63;;;;;;;3.34;100.00;102156.91;6121631;23;20038;-85
2022/11/27 03:33:32;;;;;;;15.75;8.48;;;;;;;3.36;100.00;102159.56;6122251;23;20009;-86
2022/11/27 03:35:57;;;;;;;20.23;9.15;;;;;;;3.37;100.00;102159.53;6123342;23;20005;-86
2022/11/27 03:38:23;;;;;;;15.43;8.07;;;;;;;3.39;100.00;102160.44;6121938;23;20013;-84
2022/11/27 03:40:59;;;;;;;15.60;8.07;;;;;;;3.36;100.00;102157.78;6119909;23;20440;-84
2022/11/27 03:43:34;;;;;;;16.08;8.70;;;;;;;3.39;100.00;102155.16;6129688;23;20017;-87
2022/11/27 03:46:23;;;;;;;15.00;7.57;;;;;;;3.39;100.00;102144.63;6104017;23;20416;-86
2022/11/27 03:49:01;;;;;;;13.25;7.75;;;;;;;3.38;100.00;102134.09;6126243;23;20420;-85
2022/11/27 03:52:02;;;;;;;17.55;8.50;;;;;;;3.38;100.00;102131.47;6123866;23;20002;-85
2022/11/27 03:54:38;;;;;;;16.02;8.00;;;;;;;3.41;100.00;102132.34;6098678;23;20009;-86
2022/11/27 03:57:27;;;;;;;14.63;7.97;;;;;;;3.44;100.00;102132.34;6097341;23;20002;-86
2022/11/27 03:59:57;;;;;;;11.07;6.80;;;;;;;3.41;100.00;102119.19;6131227;23;20010;-85
2022/11/27 04:02:30;;;;;;;14.75;7.43;;;;;;;3.47;100.00;102127.09;6133681;23;19989;-85
2022/11/27 04:04:55;;;;;;;12.27;6.93;;;;;;;3.45;100.00;102114.78;6110324;23;20009;-85
2022/11/27 04:07:21;;;;;;;12.88;6.93;;;;;;;3.47;100.00;102119.19;6137804;23;20033;-85
2022/11/27 04:09:46;;;;;;;14.52;7.32;;;;;;;3.50;100.00;102126.19;6124981;23;20013;-86
2022/11/27 04:12:11;;;;;;;12.90;6.40;;;;;;;3.52;100.00;102124.44;6124155;23;20020;-86
2022/11/27 04:14:36;;;;;;;12.10;7.03;;;;;;;3.49;100.00;102112.16;6121310;23;20443;-85
2022/11/27 04:17:02;;;;;;;13.00;6.60;;;;;;;3.57;100.00;102124.44;6096314;23;20010;-85
2022/11/27 04:19:27;;;;;;;9.82;6.30;;;;;;;3.55;100.00;102132.31;6122478;23;20057;-86
2022/11/27 04:21:52;;;;;;;14.18;6.72;;;;;;;3.57;100.00;102135.84;6122240;23;20020;-85
2022/11/27 04:24:18;;;;;;;13.13;6.35;;;;;;;3.55;100.00;102134.06;6095352;23;20308;-86
2022/11/27 04:26:43;;;;;;;13.82;6.47;;;;;;;3.56;100.00;102136.72;6122763;23;20416;-85
2022/11/27 04:29:08;;;;;;;13.18;6.10;;;;;;;3.56;100.00;102138.50;6121496;23;20009;-85
2022/11/27 04:31:33;;;;;;;12.98;6.35;;;;;;;3.49;100.00;102125.31;6121855;23;20429;-85
2022/11/27 04:33:59;;;;;;;10.52;6.28;;;;;;;3.48;100.00;102134.09;6120472;23;20006;-85
2022/11/27 04:36:24;;;;;;;11.05;6.53;;;;;;;3.54;100.00;102137.59;6095586;23;20542;-85
2022/11/27 04:38:49;;;;;;;12.20;6.75;;;;;;;3.50;100.00;102128.81;6121693;23;20427;-85
2022/11/27 04:41:15;;;;;;;10.13;5.65;;;;;;;3.53;100.00;102130.59;6119629;23;20016;-86
2022/11/27 04:43:40;;;;;;;11.95;5.97;;;;;;;3.48;100.00;102128.84;6120842;23;20016;-86
2022/11/27 04:46:05;;;;;;;11.65;6.05;;;;;;;3.48;100.00;102134.09;6120373;23;20006;-86
2022/11/27 04:48:31;;;;;;;12.20;6.28;;;;;;;3.50;100.00;102128.81;6118510;23;20041;-85
2022/11/27 04:50:56;;;;;;;11.43;5.70;;;;;;;3.49;100.00;102130.59;6120278;23;20009;-85
2022/11/27 04:53:21;;;;;;;10.52;6.20;;;;;;;3.47;100.00;102119.19;6095089;23;20032;-85
2022/11/27 04:55:47;;;;;;;13.15;5.93;;;;;;;3.46;100.00;102108.66;6121731;23;20009;-86
2022/11/27 04:58:12;;;;;;;10.38;5.90;;;;;;;3.46;100.00;102098.13;6121204;23;20034;-86
2022/11/27 05:00:37;;;;;;;10.65;5.47;;;;;;;3.53;100.00;102091.09;6121037;23;20016;-84
2022/11/27 05:03:03;;;;;;;10.07;6.15;;;;;;;3.56;100.00;102085.84;6095597;23;20016;-86
2022/11/27 05:05:28;;;;;;;11.65;5.95;;;;;;;3.50;100.00;102079.69;6120871;23;20482;-86
2022/11/27 05:07:53;;;;;;;9.73;5.95;;;;;;;3.56;100.00;102091.97;6122982;23;20032;-86
2022/11/27 05:10:18;;;;;;;13.02;5.63;;;;;;;3.54;100.00;102091.09;6121447;23;20089;-86
2022/11/27 05:12:44;;;;;;;10.52;5.75;;;;;;;3.54;100.00;102085.81;6121301;23;20037;-86
2022/11/27 05:15:09;;;;;;;10.52;5.38;;;;;;;3.56;100.00;102093.75;6122820;23;20662;-86
2022/11/27 05:17:35;;;;;;;12.27;5.93;;;;;;;3.55;100.00;102077.03;6122503;23;20049;-86
2022/11/27 05:20:00;;;;;;;9.85;5.70;;;;;;;3.54;100.00;102080.56;6122248;23;20120;-85
2022/11/27 05:22:25;;;;;;;11.38;5.65;;;;;;;3.57;100.00;102071.78;6122605;23;20005;-85
2022/11/27 05:24:51;;;;;;;9.52;5.53;;;;;;;3.59;100.00;102075.28;6121593;23;20009;-85
2022/11/27 05:27:16;;;;;;;9.35;5.68;;;;;;;3.58;100.00;102066.50;6121505;23;20009;-85
2022/11/27 05:29:42;;;;;;;12.95;5.88;;;;;;;3.59;100.00;102056.84;6120761;23;20507;-85
2022/11/27 05:32:07;;;;;;;11.77;6.13;;;;;;;3.60;100.00;102070.03;6120856;23;20518;-86
2022/11/27 05:34:33;;;;;;;12.43;5.95;;;;;;;3.60;100.00;102058.63;6121753;23;20006;-85
2022/11/27 05:36:58;;;;;;;11.40;6.10;;;;;;;3.63;100.00;102050.69;6122164;23;20009;-86
2022/11/27 05:39:23;;;;;;;12.82;6.10;;;;;;;3.64;100.00;102057.75;6122852;23;20009;-86
2022/11/27 05:41:49;;;;;;;10.75;6.18;;;;;;;3.61;100.00;102041.94;6121868;23;19998;-86
2022/11/27 05:44:14;;;;;;;10.90;6.80;;;;;;;3.65;100.00;102052.44;6122343;23;20008;-87
2022/11/27 05:46:42;;;;;;;13.98;6.72;;;;;;;3.64;100.00;102044.56;6121399;23;20064;-85
2022/11/27 05:49:12;;;;;;;10.55;6.72;;;;;;;3.66;100.00;102048.94;6124979;23;20013;-86
2022/11/27 05:51:38;;;;;;;12.35;7.40;;;;;;;3.67;100.00;102052.44;6125267;23;20034;-87
2022/11/27 05:54:03;;;;;;;12.35;6.55;;;;;;;3.67;100.00;102052.44;6124659;23;20010;-86
2022/11/27 05:56:28;;;;;;;13.63;6.70;;;;;;;3.67;100.00;102048.03;6123125;23;20009;-86
2022/11/27 05:58:54;;;;;;;10.07;6.28;;;;;;;3.66;100.00;102043.66;6099409;23;20041;-86
2022/11/27 06:01:19;;;;;;;10.75;6.30;;;;;;;3.62;100.00;102022.63;6126569;23;20429;-85
2022/11/27 06:03:45;;;;;;;9.32;6.70;;;;;;;3.66;100.00;102027.88;6123208;23;20002;-86
2022/11/27 06:06:15;;;;;;;11.77;6.68;;;;;;;3.69;100.00;102027.88;6126166;23;20013;-85
2022/11/27 06:08:41;;;;;;;12.25;6.63;;;;;;;3.72;100.00;102026.97;6122388;23;20010;-86
2022/11/27 06:11:09;;;;;;;13.23;6.95;;;;;;;3.71;100.00;102022.59;6128696;23;20013;-85
2022/11/27 06:13:35;;;;;;;13.60;6.40;;;;;;;3.72;100.00;102025.22;6133916;23;19997;-86
2022/11/27 06:16:05;;;;;;;12.98;6.75;;;;;;;3.70;100.00;102019.09;6130739;23;20016;-86
2022/11/27 06:18:30;;;;;;;13.05;6.88;;;;;;;3.73;100.00;102012.94;6128269;23;20013;-85
2022/11/27 06:20:56;;;;;;;10.30;6.40;;;;;;;3.74;100.00;102019.94;6125533;23;20384;-85
2022/11/27 06:23:21;;;;;;;14.10;7.07;;;;;;;3.71;100.00;102012.06;6123871;23;20009;-85
2022/11/27 06:25:46;;;;;;;13.50;6.78;;;;;;;3.75;100.00;102012.03;6124280;23;20013;-86
2022/11/27 06:28:11;;;;;;;11.85;6.32;;;;;;;3.74;100.00;102009.41;6125449;23;20006;-85
2022/11/27 06:30:37;;;;;;;11.60;7.05;;;;;;;3.75;100.00;102004.13;6124389;23;20065;-85
2022/11/27 06:33:02;;;;;;;10.13;7.03;;;;;;;3.77;100.00;102003.28;6125439;23;20466;-85
2022/11/27 06:35:28;;;;;;;9.40;6.05;;;;;;;3.76;100.00;102002.38;6124560;23;20076;-85
2022/11/27 06:37:54;;;;;;;12.20;7.40;;;;;;;3.78;100.00;102005.00;6121581;23;20006;-85
2022/11/27 06:40:19;;;;;;;11.38;7.15;;;;;;;3.80;100.00;102013.78;6095556;23;20079;-85
2022/11/27 06:42:44;;;;;;;11.18;7.05;;;;;;;3.81;100.00;102012.91;6096832;23;20037;-85
2022/11/27 06:45:10;;;;;;;13.55;7.15;;;;;;;3.80;100.00;102009.38;6123903;23;20029;-86
2022/11/27 06:47:35;;;;;;;12.10;7.03;;;;;;;3.81;100.00;102013.78;6123870;23;20010;-86
2022/11/27 06:50:00;;;;;;;12.80;7.45;;;;;;;3.81;100.00;102007.66;6096853;23;20014;-85
2022/11/27 06:52:25;;;;;;;12.88;7.28;;;;;;;3.80;100.00;102012.00;6122676;23;20002;-85
2022/11/27 06:54:51;;;;;;;12.50;7.55;;;;;;;3.76;100.00;101999.72;6121887;23;20057;-85
2022/11/27 06:57:16;;;;;;;10.93;7.15;;;;;;;3.80;100.00;102004.09;6123051;23;20012;-86
2022/11/27 06:59:41;;;;;;;12.52;7.22;;;;;;;3.77;100.00;101998.88;6097340;23;20089;-85
2022/11/27 07:02:12;;;;;;;13.75;7.63;;;;;;;3.79;100.00;102001.50;6124146;23;20036;-86
2022/11/27 07:04:37;;;;;;;11.27;6.82;;;;;;;3.76;100.00;101997.09;6123840;23;20025;-86
2022/11/27 07:07:03;;;;;;;10.63;7.18;;;;;;;3.74;100.00;101998.88;6121994;23;20015;-86
2022/11/27 07:09:28;;;;;;;12.85;7.72;;;;;;;3.70;100.00;101987.47;6121718;23;20024;-84
2022/11/27 07:11:53;;;;;;;13.85;7.93;;;;;;;3.76;100.00;101997.09;6122070;23;20407;-85
2022/11/27 07:14:19;;;;;;;14.48;8.10;;;;;;;3.73;100.00;101986.59;6121838;23;20080;-84
2022/11/27 07:16:44;;;;;;;12.93;8.00;;;;;;;3.72;100.00;101979.56;6122692;23;20006;-85
2022/11/27 07:19:09;;;;;;;11.88;7.43;;;;;;;3.71;100.00;101975.19;6120792;23;20300;-85
2022/11/27 07:21:36;;;;;;;12.82;8.30;;;;;;;3.72;100.00;101972.56;6122196;23;20001;-85
2022/11/27 07:24:02;;;;;;;14.15;7.93;;;;;;;3.73;100.00;101973.44;6122348;23;20440;-85
2022/11/27 07:26:29;;;;;;;17.65;8.40;;;;;;;3.69;100.00;101969.06;6124168;23;20074;-85
2022/11/27 07:28:54;;;;;;;13.25;8.43;;;;;;;3.64;100.00;101957.69;6093822;23;20511;-84
2022/11/27 07:31:22;;;;;;;12.90;8.65;;;;;;;3.65;100.00;101960.31;6120490;23;20006;-85
2022/11/27 07:33:47;;;;;;;12.75;8.98;;;;;;;3.61;100.00;101953.31;6121949;23;20073;-86
2022/11/27 07:36:16;;;;;;;17.73;10.20;;;;;;;3.59;100.00;101949.78;6122831;23;20022;-85
2022/11/27 07:38:43;;;;;;;15.13;9.30;;;;;;;3.57;100.00;101940.16;6122617;23;20002;-85
2022/11/27 07:41:08;;;;;;;20.45;9.50;;;;;;;3.51;100.00;101946.31;6122564;23;20454;-85
2022/11/27 07:43:35;;;;;;;16.15;9.85;;;;;;;3.54;100.00;101954.19;6120356;23;20002;-85
2022/11/27 07:46:05;;;;;;;17.20;10.15;;;;;;;3.55;100.00;101958.56;6120842;23;20061;-84
2022/11/27 07:48:31;;;;;;;17.45;10.50;;;;;;;3.52;100.00;101947.22;6096641;23;20352;-85
2022/11/27 07:50:57;;;;;;;17.50;11.15;;;;;;;3.49;100.00;101938.44;6123885;23;20010;-85
2022/11/27 07:53:22;;;;;;;15.75;10.07;;;;;;;3.51;100.00;101938.41;6121264;23;20005;-85
2022/11/27 07:55:47;;;;;;;16.75;10.20;;;;;;;3.54;100.00;101948.94;6120466;23;20057;-85
2022/11/27 07:58:12;;;;;;;16.73;11.02;;;;;;;3.50;100.00;101920.88;6122476;23;20416;-86
2022/11/27 08:00:38;;;;;;;15.00;10.85;;;;;;;3.55;100.00;101927.00;6094185;23;20006;-87
2022/11/27 08:03:03;;;;;;;16.42;10.63;;;;;;;3.57;100.00;101922.59;6122238;23;20077;-86
2022/11/27 08:05:29;;;;;;;17.90;11.70;;;;;;;3.59;100.00;101919.94;6124196;23;20006;-86
2022/11/27 08:07:54;;;;;;;17.50;11.80;;;;;;;3.61;100.00;101915.56;6097447;23;20012;-86
2022/11/27 08:10:19;;;;;;;20.45;10.98;;;;;;;3.57;100.00;101906.81;6099044;23;20061;-85
2022/11/27 08:12:45;;;;;;;17.88;11.07;;;;;;;3.64;100.00;101911.16;6124689;23;20747;-87
2022/11/27 08:15:11;;;;;;;19.10;11.25;;;;;;;3.66;100.00;101911.16;6101663;23;20789;-85
2022/11/27 08:17:38;;;;;;;20.02;12.02;;;;;;;3.66;100.00;101895.34;6119857;23;20372;-84
2022/11/27 08:20:04;;;;;;;17.77;11.40;;;;;;;3.68;100.00;101896.25;6126772;23;20310;-84
2022/11/27 08:22:29;;;;;;;19.83;12.20;;;;;;;3.65;100.00;101889.22;6131503;23;20009;-85
2022/11/27 08:24:55;;;;;;;15.95;11.75;;;;;;;3.72;100.00;101901.47;6098285;23;20022;-85
2022/11/27 08:27:20;;;;;;;19.58;11.73;;;;;;;3.75;100.00;101898.78;6093375;23;20026;-84
2022/11/27 08:29:46;;;;;;;20.05;12.07;;;;;;;3.77;100.00;101892.69;6089468;23;20084;-83
2022/11/27 08:32:12;;;;;;;20.08;12.38;;;;;;;3.80;100.00;101887.38;6090458;23;20037;-84
2022/11/27 08:34:37;;;;;;;18.05;12.63;;;;;;;3.82;100.00;101896.16;6093245;23;20428;-86
2022/11/27 08:37:04;;;;;;;21.00;12.18;;;;;;;3.82;100.00;101894.38;6096074;23;20378;-85
2022/11/27 08:39:29;;;;;;;19.45;11.82;;;;;;;3.85;100.00;101891.75;6093218;23;19999;-85
2022/11/27 08:41:54;;;;;;;22.02;12.93;;;;;;;3.90;100.00;101889.94;6092977;23;20006;-85
2022/11/27 08:44:20;;;;;;;24.00;12.57;;;;;;;3.89;100.00;101882.94;6092482;23;20006;-86
2022/11/27 08:46:45;;;;;;;18.55;12.02;;;;;;;3.95;100.00;101885.50;6087701;23;20336;-84
2022/11/27 08:49:10;;;;;;;19.13;12.25;;;;;;;3.97;100.00;101886.41;6088389;23;20007;-85
2022/11/27 08:51:36;;;;;;;19.33;11.82;;;;;;;4.02;100.00;101883.72;6085079;23;20038;-85
2022/11/27 08:54:02;;;;;;;18.77;12.30;;;;;;;4.03;100.00;101876.69;6089381;23;20011;-86
2022/11/27 08:56:27;;;;;;;19.08;12.82;;;;;;;4.08;100.00;101877.53;6090670;23;20017;-85
2022/11/27 08:58:52;;;;;;;17.48;11.45;;;;;;;4.09;100.00;101868.72;6084673;23;20495;-85
2022/11/27 09:01:21;;;;;;;23.48;12.02;;;;;;;4.14;100.00;101888.00;6089456;23;20066;-83
2022/11/27 09:03:47;;;;;;;17.38;12.18;;;;;;;4.17;100.00;101882.72;6090120;23;20488;-87
2022/11/27 09:06:18;;;;;;;16.08;11.52;;;;;;;4.17;100.00;101885.34;6090007;23;20014;-82
2022/11/27 09:08:44;;;;;;;17.75;12.65;;;;;;;4.20;100.00;101891.47;6085193;23;20041;-82
2022/11/27 09:11:10;;;;;;;19.33;12.18;;;;;;;4.23;100.00;101890.59;6089207;23;20007;-83
2022/11/27 09:13:38;;;;;;;18.08;12.85;;;;;;;4.25;100.00;101891.44;6088947;23;20187;-83
2022/11/27 09:16:04;;;;;;;17.63;12.43;;;;;;;4.28;100.00;101891.41;6086337;23;20328;-84
2022/11/27 09:18:30;;;;;;;18.15;12.15;;;;;;;4.33;100.00;101891.38;6089490;23;20006;-84
2022/11/27 09:21:03;;;;;;;19.98;12.88;;;;;;;4.33;100.00;101892.25;6089343;23;20037;-83
2022/11/27 09:23:29;;;;;;;17.77;12.35;;;;;;;4.38;100.00;101892.22;6091194;23;20037;-83
2022/11/27 09:26:02;;;;;;;16.48;12.05;;;;;;;4.36;100.00;101884.31;6120162;23;20020;-83
2022/11/27 09:28:28;;;;;;;16.73;12.60;;;;;;;4.45;100.00;101891.28;6092791;23;20005;-84
2022/11/27 09:30:57;;;;;;;16.85;12.10;;;;;;;4.47;100.00;101884.22;6120087;23;20077;-82
2022/11/27 09:33:24;;;;;;;17.13;12.95;;;;;;;4.49;100.00;101890.38;6120250;23;20600;-83
2022/11/27 09:35:49;;;;;;;18.70;12.95;;;;;;;4.55;100.00;101892.06;6119105;23;20006;-83
2022/11/27 09:38:15;;;;;;;18.60;12.98;;;;;;;4.54;100.00;101888.56;6093832;23;20009;-83
2022/11/27 09:40:56;;;;;;;17.27;11.90;;;;;;;4.60;100.00;101892.88;6119649;23;20010;-83
2022/11/27 09:43:30;;;;;;;19.65;12.55;;;;;;;4.58;100.00;101884.13;6120659;23;20040;-82
2022/11/27 09:46:02;;;;;;;17.38;12.27;;;;;;;4.61;100.00;101884.09;6093223;23;20012;-83
2022/11/27 09:48:36;;;;;;;14.75;12.30;;;;;;;4.62;100.00;101886.72;6118874;23;20030;-84
2022/11/27 09:51:08;;;;;;;15.23;12.75;;;;;;;4.64;100.00;101879.69;6119093;23;20017;-82
2022/11/27 09:53:47;;;;;;;18.30;12.60;;;;;;;4.68;100.00;101880.50;6120104;23;20005;-83
2022/11/27 09:56:16;;;;;;;19.15;13.00;;;;;;;4.71;100.00;101877.84;6119656;23;20393;-82
2022/11/27 09:58:45;;;;;;;19.70;13.23;;;;;;;4.70;100.00;101869.06;6117182;23;20013;-82
2022/11/27 10:01:13;;;;;;;15.82;12.35;;;;;;;4.78;100.00;101876.91;6118688;23;20010;-82
2022/11/27 10:03:43;;;;;;;22.60;12.90;;;;;;;4.79;100.00;101876.00;6119040;23;20005;-82
2022/11/27 10:06:23;;;;;;;20.38;13.23;;;;;;;4.79;100.00;101867.22;6119688;23;20006;-83
2022/11/27 10:08:54;;;;;;;18.30;13.95;;;;;;;4.80;100.00;101867.19;6117864;23;20009;-82
2022/11/27 10:11:31;;;;;;;17.10;12.40;;;;;;;4.80;100.00;101848.72;6118579;23;20325;-81
2022/11/27 10:14:19;;;;;;;18.42;13.13;;;;;;;4.90;100.00;101857.44;6118709;23;20010;-82
2022/11/27 10:16:50;;;;;;;17.45;13.70;;;;;;;4.90;100.00;101847.75;6119489;23;20010;-82
2022/11/27 10:19:42;;;;;;;17.70;12.85;;;;;;;4.92;100.00;101839.81;6119689;23;20438;-82
2022/11/27 10:22:23;;;;;;;22.27;13.68;;;;;;;4.98;100.00;101848.53;6121899;23;20001;-82
2022/11/27 10:25:09;;;;;;;17.85;13.80;;;;;;;5.02;100.00;101844.09;6121143;23;20014;-82
2022/11/27 10:27:42;;;;;;;16.67;12.93;;;;;;;5.07;100.00;101825.56;6134031;23;20020;-81
2022/11/27 10:30:17;;;;;;;23.25;13.43;;;;;;;5.14;100.00;101835.13;6144683;23;20010;-82
2022/11/27 10:32:45;;;;;;;18.20;13.25;;;;;;;5.09;100.00;101821.13;6139197;23;20002;-82
2022/11/27 10:35:16;;;;;;;15.55;12.95;;;;;;;5.18;100.00;101823.66;6122941;23;20012;-83
2022/11/27 10:37:47;;;;;;;19.35;13.60;;;;;;;5.16;100.00;101825.44;6121034;23;20002;-82
2022/11/27 10:40:13;;;;;;;18.65;12.82;;;;;;;5.19;100.00;101821.00;6095899;23;20366;-82
2022/11/27 10:43:03;;;;;;;20.15;13.65;;;;;;;5.20;100.00;101824.53;6096784;23;20049;-83
2022/11/27 10:45:44;;;;;;;20.45;13.88;;;;;;;5.20;100.00;101811.31;6123632;23;20436;-83
2022/11/27 10:48:11;;;;;;;18.42;13.50;;;;;;;5.20;100.00;101803.41;6120735;23;20006;-82
2022/11/27 10:50:37;;;;;;;17.63;13.27;;;;;;;5.23;100.00;101800.72;6121067;23;20102;-82
2022/11/27 10:53:31;;;;;;;18.85;13.77;;;;;;;5.30;100.00;101807.66;6122869;23;20615;-82
2022/11/27 10:56:10;;;;;;;18.27;13.05;;;;;;;5.33;100.00;101797.06;6120359;23;20033;-81
2022/11/27 10:58:48;;;;;;;18.13;13.05;;;;;;;5.39;100.00;101791.72;6118404;23;20017;-82
2022/11/27 11:01:16;;;;;;;15.50;13.15;;;;;;;5.44;100.00;101789.88;6120504;23;20013;-82
2022/11/27 11:03:42;;;;;;;18.70;13.35;;;;;;;5.45;100.00;101786.31;6118723;23;20030;-82
2022/11/27 11:06:17;;;;;;;16.63;12.85;;;;;;;5.38;100.00;101760.91;6122025;23;20036;-82
2022/11/27 11:08:43;;;;;;;18.52;12.98;;;;;;;5.44;100.00;101779.31;6120663;23;20336;-82
2022/11/27 11:11:09;;;;;;;14.68;12.30;;;;;;;5.48;100.00;101781.00;6121327;23;20008;-82
2022/11/27 11:13:40;;;;;;;18.65;13.02;;;;;;;5.53;100.00;101774.78;6119948;23;20428;-82
2022/11/27 11:16:16;;;;;;;15.50;12.52;;;;;;;5.58;100.00;101757.09;6119246;23;20002;-83
2022/11/27 11:18:45;;;;;;;18.80;12.90;;;;;;;5.61;100.00;101759.69;6116885;23;20009;-82
2022/11/27 11:21:43;;;;;;;19.77;13.70;;;;;;;5.69;100.00;101742.81;6093076;23;20036;-83